KLM9545 KATL-KBHM
Flight info
| Callsign | KLM9545 |
|---|---|
| Flight time | 0h 28m |
| Altitude | 16000 |
| Route | NASSA2 NASSA KIOSK |
| Aircraft | B77W/H-SDE1E2E3FGHIJ2J3J4J5M1RWXY/LB1D1 |
Departure
| Time | 2026-04-15 03:05 |
|---|---|
| Airport | Hartsfield Jackson Atlanta International Airport (KATL) |
Arrival
| Time | 2026-04-15 03:34 |
|---|---|
| Airport | Birmingham-Shuttlesworth International Airport (KBHM) |
| Time | Latitude | Longitude | Altitude | Speed | Heading |
|---|---|---|---|---|---|
| 2026-04-15 02:31 | 33.63875 | -84.41906 | 1011 ft | 0 kts | 289° |
| 2026-04-15 02:52 | 33.63873 | -84.41897 | 1011 ft | 2 kts | 287° |
| 2026-04-15 02:52 | 33.63867 | -84.41878 | 1011 ft | 2 kts | 277° |
| 2026-04-15 02:52 | 33.63867 | -84.41858 | 1011 ft | 2 kts | 328° |
| 2026-04-15 02:53 | 33.63858 | -84.41855 | 1011 ft | 0 kts | 204° |
| 2026-04-15 03:01 | 33.63854 | -84.41857 | 1011 ft | 3 kts | 204° |
| 2026-04-15 03:01 | 33.63806 | -84.41848 | 1011 ft | 12 kts | 160° |
| 2026-04-15 03:01 | 33.63706 | -84.41826 | 1012 ft | 13 kts | 171° |
| 2026-04-15 03:01 | 33.63594 | -84.41755 | 1011 ft | 21 kts | 125° |
| 2026-04-15 03:02 | 33.63580 | -84.41561 | 1010 ft | 23 kts | 90° |
| 2026-04-15 03:02 | 33.63580 | -84.41374 | 1010 ft | 23 kts | 89° |
| 2026-04-15 03:02 | 33.63581 | -84.41181 | 1011 ft | 23 kts | 90° |
| 2026-04-15 03:02 | 33.63581 | -84.41021 | 1011 ft | 16 kts | 90° |
| 2026-04-15 03:03 | 33.63574 | -84.40938 | 1011 ft | 9 kts | 116° |
| 2026-04-15 03:03 | 33.63519 | -84.40912 | 1012 ft | 9 kts | 177° |
| 2026-04-15 03:03 | 33.63478 | -84.40960 | 1012 ft | 9 kts | 255° |
| 2026-04-15 03:03 | 33.63471 | -84.41038 | 1011 ft | 3 kts | 269° |
| 2026-04-15 03:04 | 33.63471 | -84.41082 | 1011 ft | 18 kts | 270° |
| 2026-04-15 03:05 | 33.63471 | -84.41487 | 1011 ft | 89 kts | 270° |
| 2026-04-15 03:05 | 33.63468 | -84.42533 | 1014 ft | 158 kts | 269° |
| 2026-04-15 03:05 | 33.63501 | -84.43828 | 1714 ft | 146 kts | 271° |
| 2026-04-15 03:05 | 33.63561 | -84.45009 | 2459 ft | 140 kts | 269° |
| 2026-04-15 03:06 | 33.63591 | -84.46194 | 2992 ft | 145 kts | 266° |
| 2026-04-15 03:06 | 33.63592 | -84.47432 | 3453 ft | 152 kts | 268° |
| 2026-04-15 03:06 | 33.63612 | -84.48716 | 3911 ft | 156 kts | 266° |
| 2026-04-15 03:06 | 33.63623 | -84.50048 | 4354 ft | 164 kts | 267° |
| 2026-04-15 03:07 | 33.63630 | -84.51444 | 4781 ft | 171 kts | 267° |
| 2026-04-15 03:07 | 33.63625 | -84.52889 | 5160 ft | 179 kts | 267° |
| 2026-04-15 03:07 | 33.63608 | -84.54440 | 5468 ft | 188 kts | 267° |
| 2026-04-15 03:07 | 33.63584 | -84.56038 | 5799 ft | 194 kts | 267° |
| 2026-04-15 03:08 | 33.63564 | -84.57668 | 6111 ft | 198 kts | 267° |
| 2026-04-15 03:08 | 33.63542 | -84.59324 | 6386 ft | 204 kts | 266° |
| 2026-04-15 03:08 | 33.63519 | -84.61052 | 6636 ft | 210 kts | 268° |
| 2026-04-15 03:08 | 33.63493 | -84.62832 | 6874 ft | 216 kts | 267° |
| 2026-04-15 03:09 | 33.63462 | -84.64659 | 7132 ft | 222 kts | 267° |
| 2026-04-15 03:09 | 33.63436 | -84.66575 | 7452 ft | 235 kts | 269° |
| 2026-04-15 03:09 | 33.63456 | -84.68595 | 7898 ft | 252 kts | 269° |
| 2026-04-15 03:09 | 33.63459 | -84.70793 | 8343 ft | 271 kts | 269° |
| 2026-04-15 03:10 | 33.63483 | -84.73098 | 9064 ft | 281 kts | 272° |
| 2026-04-15 03:10 | 33.63696 | -84.75457 | 9929 ft | 286 kts | 278° |
| 2026-04-15 03:10 | 33.64021 | -84.77846 | 10606 ft | 299 kts | 279° |
| 2026-04-15 03:10 | 33.64382 | -84.80389 | 10844 ft | 327 kts | 279° |
| 2026-04-15 03:11 | 33.64779 | -84.83204 | 11078 ft | 355 kts | 279° |
| 2026-04-15 03:11 | 33.65191 | -84.86192 | 11734 ft | 367 kts | 278° |
| 2026-04-15 03:11 | 33.65601 | -84.89244 | 12699 ft | 373 kts | 278° |
| 2026-04-15 03:11 | 33.65845 | -84.91086 | 13355 ft | 374 kts | 279° |
| 2026-04-15 03:12 | 33.66251 | -84.94180 | 14425 ft | 376 kts | 279° |
| 2026-04-15 03:12 | 33.66654 | -84.97285 | 15395 ft | 377 kts | 279° |
| 2026-04-15 03:12 | 33.67058 | -85.00417 | 15988 ft | 380 kts | 278° |
| 2026-04-15 03:12 | 33.67460 | -85.03532 | 16038 ft | 385 kts | 278° |
| 2026-04-15 03:13 | 33.67868 | -85.06699 | 16053 ft | 383 kts | 278° |
| 2026-04-15 03:13 | 33.68274 | -85.09861 | 16050 ft | 382 kts | 278° |
| 2026-04-15 03:13 | 33.68548 | -85.11995 | 16045 ft | 382 kts | 278° |
| 2026-04-15 03:13 | 33.68946 | -85.15103 | 16052 ft | 381 kts | 278° |
| 2026-04-15 03:14 | 33.69348 | -85.18251 | 16053 ft | 382 kts | 278° |
| 2026-04-15 03:14 | 33.69623 | -85.21417 | 16046 ft | 382 kts | 272° |
| 2026-04-15 03:14 | 33.69607 | -85.24606 | 16047 ft | 382 kts | 267° |
| 2026-04-15 03:14 | 33.69322 | -85.27771 | 16042 ft | 381 kts | 262° |
| 2026-04-15 03:15 | 33.68933 | -85.30928 | 16028 ft | 382 kts | 262° |
| 2026-04-15 03:15 | 33.68530 | -85.34081 | 16031 ft | 382 kts | 262° |
| 2026-04-15 03:15 | 33.68125 | -85.37243 | 16021 ft | 383 kts | 262° |
| 2026-04-15 03:15 | 33.67722 | -85.40405 | 16008 ft | 383 kts | 262° |
| 2026-04-15 03:16 | 33.67323 | -85.43572 | 16002 ft | 383 kts | 262° |
| 2026-04-15 03:16 | 33.66926 | -85.46733 | 15989 ft | 383 kts | 262° |
| 2026-04-15 03:16 | 33.66530 | -85.49900 | 15986 ft | 383 kts | 262° |
| 2026-04-15 03:16 | 33.66134 | -85.53065 | 15975 ft | 383 kts | 262° |
| 2026-04-15 03:17 | 33.65744 | -85.56187 | 15979 ft | 383 kts | 262° |
| 2026-04-15 03:17 | 33.65351 | -85.59335 | 15978 ft | 376 kts | 262° |
| 2026-04-15 03:17 | 33.64968 | -85.62389 | 15969 ft | 364 kts | 262° |
| 2026-04-15 03:17 | 33.64596 | -85.65350 | 15750 ft | 356 kts | 262° |
| 2026-04-15 03:18 | 33.64228 | -85.68272 | 15422 ft | 352 kts | 262° |
| 2026-04-15 03:18 | 33.63864 | -85.71154 | 15017 ft | 349 kts | 262° |
| 2026-04-15 03:18 | 33.63501 | -85.74030 | 14560 ft | 347 kts | 262° |
| 2026-04-15 03:18 | 33.63139 | -85.76892 | 14129 ft | 346 kts | 262° |
| 2026-04-15 03:19 | 33.62777 | -85.79751 | 13615 ft | 346 kts | 262° |
| 2026-04-15 03:19 | 33.62415 | -85.82602 | 13127 ft | 345 kts | 261° |
| 2026-04-15 03:19 | 33.62054 | -85.85440 | 12656 ft | 343 kts | 261° |
| 2026-04-15 03:19 | 33.61694 | -85.88266 | 12204 ft | 341 kts | 261° |
| 2026-04-15 03:20 | 33.61334 | -85.91075 | 11748 ft | 340 kts | 261° |
| 2026-04-15 03:20 | 33.60974 | -85.93872 | 11295 ft | 339 kts | 261° |
| 2026-04-15 03:20 | 33.60616 | -85.96662 | 10820 ft | 338 kts | 261° |
| 2026-04-15 03:20 | 33.60264 | -85.99409 | 10637 ft | 328 kts | 261° |
| 2026-04-15 03:21 | 33.59922 | -86.02079 | 10460 ft | 319 kts | 261° |
| 2026-04-15 03:21 | 33.59265 | -86.07185 | 10187 ft | 300 kts | 261° |
| 2026-04-15 03:21 | 33.58950 | -86.09620 | 10058 ft | 291 kts | 261° |
| 2026-04-15 03:22 | 33.58645 | -86.11979 | 9873 ft | 284 kts | 260° |
| 2026-04-15 03:22 | 33.58339 | -86.14319 | 9527 ft | 283 kts | 261° |
| 2026-04-15 03:22 | 33.58326 | -86.16612 | 9226 ft | 279 kts | 282° |
| 2026-04-15 03:22 | 33.59039 | -86.18761 | 8909 ft | 277 kts | 294° |
| 2026-04-15 03:23 | 33.59777 | -86.20856 | 8565 ft | 268 kts | 282° |
| 2026-04-15 03:23 | 33.59818 | -86.23048 | 8270 ft | 260 kts | 259° |
| 2026-04-15 03:23 | 33.59512 | -86.25182 | 7989 ft | 258 kts | 259° |
| 2026-04-15 03:23 | 33.59549 | -86.27308 | 7653 ft | 257 kts | 284° |
| 2026-04-15 03:24 | 33.60252 | -86.29275 | 7391 ft | 257 kts | 294° |
| 2026-04-15 03:24 | 33.61061 | -86.31209 | 7089 ft | 262 kts | 294° |
| 2026-04-15 03:24 | 33.61887 | -86.33176 | 6795 ft | 266 kts | 294° |
| 2026-04-15 03:24 | 33.62727 | -86.35163 | 6481 ft | 268 kts | 294° |
| 2026-04-15 03:25 | 33.63568 | -86.37134 | 6173 ft | 268 kts | 294° |
| 2026-04-15 03:25 | 33.64427 | -86.39117 | 5855 ft | 267 kts | 294° |
| 2026-04-15 03:25 | 33.65287 | -86.41084 | 5575 ft | 265 kts | 294° |
| 2026-04-15 03:25 | 33.66153 | -86.43038 | 5300 ft | 265 kts | 294° |
| 2026-04-15 03:26 | 33.67026 | -86.44982 | 5033 ft | 264 kts | 294° |
| 2026-04-15 03:26 | 33.67906 | -86.46907 | 4796 ft | 261 kts | 294° |
| 2026-04-15 03:26 | 33.68777 | -86.48807 | 4573 ft | 255 kts | 293° |
| 2026-04-15 03:26 | 33.69187 | -86.50745 | 4443 ft | 236 kts | 260° |
| 2026-04-15 03:27 | 33.68581 | -86.52523 | 4241 ft | 228 kts | 234° |
| 2026-04-15 03:27 | 33.67765 | -86.54102 | 4167 ft | 217 kts | 238° |
| 2026-04-15 03:27 | 33.67063 | -86.55638 | 4063 ft | 201 kts | 239° |
| 2026-04-15 03:27 | 33.66443 | -86.57052 | 3873 ft | 182 kts | 239° |
| 2026-04-15 03:28 | 33.65866 | -86.58378 | 3654 ft | 180 kts | 239° |
| 2026-04-15 03:28 | 33.65300 | -86.59679 | 3462 ft | 175 kts | 238° |
| 2026-04-15 03:28 | 33.64748 | -86.60903 | 3242 ft | 158 kts | 236° |
| 2026-04-15 03:28 | 33.64184 | -86.61968 | 3056 ft | 143 kts | 233° |
| 2026-04-15 03:29 | 33.63642 | -86.62932 | 2866 ft | 136 kts | 232° |
| 2026-04-15 03:29 | 33.63097 | -86.63885 | 2743 ft | 142 kts | 231° |
| 2026-04-15 03:29 | 33.62893 | -86.64238 | 2665 ft | 143 kts | 232° |
| 2026-04-15 03:31 | 33.62487 | -86.64951 | 2530 ft | 142 kts | 232° |
| 2026-04-15 03:31 | 33.61921 | -86.65935 | 2351 ft | 145 kts | 231° |
| 2026-04-15 03:31 | 33.61348 | -86.66935 | 2113 ft | 144 kts | 233° |
| 2026-04-15 03:32 | 33.60785 | -86.67928 | 1929 ft | 144 kts | 233° |
| 2026-04-15 03:32 | 33.60222 | -86.68918 | 1829 ft | 144 kts | 231° |
| 2026-04-15 03:32 | 33.59648 | -86.69912 | 1618 ft | 148 kts | 234° |
| 2026-04-15 03:32 | 33.59068 | -86.70938 | 1415 ft | 149 kts | 233° |
| 2026-04-15 03:33 | 33.58472 | -86.71970 | 1186 ft | 151 kts | 235° |
| 2026-04-15 03:33 | 33.57867 | -86.73015 | 961 ft | 154 kts | 235° |
| 2026-04-15 03:33 | 33.57264 | -86.74061 | 737 ft | 151 kts | 236° |
| 2026-04-15 03:33 | 33.56698 | -86.75042 | 654 ft | 132 kts | 235° |
| 2026-04-15 03:34 | 33.56281 | -86.75766 | 647 ft | 79 kts | 235° |
| 2026-04-15 03:34 | 33.56062 | -86.76144 | 642 ft | 44 kts | 235° |
| 2026-04-15 03:34 | 33.55913 | -86.76395 | 635 ft | 21 kts | 225° |
| 2026-04-15 03:34 | 33.55835 | -86.76392 | 637 ft | 7 kts | 122° |
| 2026-04-15 03:35 | 33.55844 | -86.76335 | 638 ft | 7 kts | 61° |
| 2026-04-15 03:35 | 33.55873 | -86.76276 | 640 ft | 10 kts | 58° |
| 2026-04-15 03:35 | 33.55925 | -86.76181 | 641 ft | 16 kts | 56° |
| 2026-04-15 03:35 | 33.55996 | -86.76056 | 642 ft | 20 kts | 54° |
| 2026-04-15 03:36 | 33.56081 | -86.75911 | 645 ft | 22 kts | 54° |
| 2026-04-15 03:36 | 33.56169 | -86.75759 | 651 ft | 22 kts | 55° |
| 2026-04-15 03:36 | 33.56256 | -86.75606 | 647 ft | 21 kts | 56° |
| 2026-04-15 03:36 | 33.56316 | -86.75489 | 648 ft | 16 kts | 68° |
| 2026-04-15 03:37 | 33.56348 | -86.75362 | 647 ft | 16 kts | 75° |
| 2026-04-15 03:37 | 33.56381 | -86.75234 | 645 ft | 16 kts | 69° |
| 2026-04-15 03:37 | 33.56424 | -86.75145 | 650 ft | 8 kts | 54° |
| 2026-04-15 03:37 | 33.56437 | -86.75108 | 649 ft | 2 kts | 106° |
| 2026-04-15 03:38 | 33.56426 | -86.75099 | 648 ft | 2 kts | 146° |
| 2026-04-15 03:38 | 33.56401 | -86.75083 | 648 ft | 2 kts | 159° |